createdAt,value
2019-06-01T05:36:27.286Z,90.77
2019-06-01T05:38:58.615Z,95.11
2019-06-01T05:41:29.639Z,96.83
2019-06-01T05:44:00.676Z,92.53
2019-06-01T05:46:31.707Z,94.41
2019-06-01T05:49:02.733Z,90.62
2019-06-01T05:51:33.768Z,89.69
2019-06-01T05:54:05.096Z,89.77
2019-06-01T05:56:36.215Z,89.43
2019-06-01T05:59:07.375Z,88.06
2019-06-01T06:01:42.022Z,87.80
2019-06-01T06:04:13.457Z,88.15
2019-06-01T06:06:44.564Z,86.13
2019-06-01T06:09:17.108Z,89.87
2019-06-01T06:11:48.438Z,88.90
2019-06-01T06:14:21.077Z,83.79
2019-06-01T06:16:52.694Z,84.36
2019-06-01T06:19:23.889Z,84.68
2019-06-01T06:21:55.032Z,86.90
2019-06-01T06:24:26.196Z,80.93
2019-06-01T06:26:57.362Z,82.93
2019-06-01T06:29:28.496Z,78.73
2019-06-01T06:31:59.618Z,79.48
2019-06-01T06:34:30.839Z,76.37
2019-06-01T06:37:01.911Z,71.65
2019-06-01T06:39:33.064Z,71.10
2019-06-01T06:42:04.264Z,72.00
2019-06-01T06:44:35.543Z,74.59
2019-06-01T06:47:06.649Z,71.43
2019-06-01T06:49:37.774Z,71.05
2019-06-01T06:52:09.108Z,70.69
2019-06-01T06:54:40.317Z,69.34
2019-06-01T06:57:11.398Z,68.31
2019-06-01T06:59:42.525Z,68.13
2019-06-01T07:02:13.642Z,67.96
2019-06-01T07:04:44.842Z,67.29
2019-06-01T07:07:16.038Z,64.51
2019-06-01T07:09:47.195Z,62.67
2019-06-01T07:12:19.216Z,61.53
2019-06-01T07:14:50.431Z,62.25
2019-06-01T07:17:21.577Z,61.42
2019-06-01T07:19:52.734Z,59.00
2019-06-01T07:22:23.962Z,59.02
2019-06-01T07:24:55.137Z,59.91
2019-06-01T07:27:26.306Z,58.77
2019-06-01T07:29:58.474Z,58.46
2019-06-01T07:32:29.644Z,57.59
2019-06-01T07:35:01.776Z,56.41
2019-06-01T07:37:33.132Z,55.21
2019-06-01T07:40:07.418Z,55.15
2019-06-01T07:42:38.645Z,57.46
2019-06-01T07:45:09.866Z,58.21
2019-06-01T07:47:41.088Z,55.64
2019-06-01T07:50:12.397Z,54.04
2019-06-01T07:52:43.634Z,54.04
2019-06-01T07:55:14.996Z,54.42
2019-06-01T07:57:46.081Z,54.50
2019-06-01T08:00:18.421Z,54.09
2019-06-01T08:02:49.654Z,53.29
2019-06-01T08:05:23.270Z,54.93
2019-06-01T08:07:53.640Z,52.67
2019-06-01T08:10:26.025Z,52.33
2019-06-01T08:12:58.730Z,51.71
2019-06-01T08:15:29.907Z,51.76
2019-06-01T08:18:01.088Z,53.00
2019-06-01T08:20:32.362Z,53.68
2019-06-01T08:23:03.431Z,52.74
2019-06-01T08:25:34.976Z,51.35
2019-06-01T08:28:06.114Z,50.00
2019-06-01T08:30:37.226Z,49.05
2019-06-01T08:33:08.375Z,48.21
2019-06-01T08:35:39.491Z,49.49
2019-06-01T08:38:10.576Z,49.66
2019-06-01T08:40:41.695Z,48.55
2019-06-01T08:43:13.034Z,47.54
2019-06-01T08:45:44.219Z,48.55
2019-06-01T08:48:15.473Z,48.24
2019-06-01T08:50:46.609Z,46.27
2019-06-01T08:53:17.721Z,46.37
2019-06-01T08:55:48.863Z,45.19
2019-06-01T08:58:20.018Z,45.27
2019-06-01T09:00:51.210Z,44.56
2019-06-01T09:03:22.555Z,43.40
2019-06-01T09:05:53.669Z,44.79
2019-06-01T09:08:26.015Z,45.52
2019-06-01T09:10:57.611Z,45.94
2019-06-01T09:13:29.141Z,44.81
2019-06-01T09:16:00.360Z,43.87
2019-06-01T09:18:31.605Z,44.60
2019-06-01T09:21:02.763Z,43.70
2019-06-01T09:23:33.872Z,43.35
2019-06-01T09:26:05.509Z,43.71
2019-06-01T09:28:37.644Z,42.81
2019-06-01T09:31:08.886Z,40.98
2019-06-01T09:33:40.059Z,41.59
2019-06-01T09:36:11.311Z,42.03
2019-06-01T09:38:42.555Z,40.35
2019-06-01T09:41:13.750Z,39.51
2019-06-01T09:43:45.045Z,36.97
2019-06-01T09:46:16.129Z,36.86
2019-06-01T09:48:47.518Z,38.10
2019-06-01T09:51:18.625Z,40.27
2019-06-01T09:53:49.764Z,39.86
2019-06-01T09:56:20.888Z,41.89
2019-06-01T09:58:51.952Z,42.97
